Time;durP1;ratioP1;P1;durP2;ratioP2;P2;SDS_P1;SDS_P2;PMS_P1;PMS_P2;Temp;Humidity;BMP_temperature;BMP_pressure;BME280_temperature;BME280_humidity;BME280_pressure;Samples;Min_cycle;Max_cycle;Signal;HPM_P1;HPM_P2
2023/03/03 00:00:08;;;;;;;36.13;14.90;;;4.00;99.90;;;;;;5029361;28;25058;-74
2023/03/03 00:02:33;;;;;;;37.85;16.05;;;3.90;99.90;;;;;;5030102;28;25179;-75
2023/03/03 00:04:59;;;;;;;30.52;14.27;;;3.90;99.90;;;;;;5026683;28;25106;-73
2023/03/03 00:07:24;;;;;;;37.90;15.60;;;3.80;99.90;;;;;;5028687;28;25164;-75
2023/03/03 00:09:50;;;;;;;28.58;13.43;;;3.80;99.90;;;;;;5028489;28;25363;-74
2023/03/03 00:12:24;;;;;;;33.25;12.57;;;3.90;99.90;;;;;;5029620;28;25061;-73
2023/03/03 00:14:50;;;;;;;30.13;13.00;;;3.70;99.90;;;;;;5031357;28;25056;-73
2023/03/03 00:17:27;;;;;;;25.40;12.32;;;3.80;99.90;;;;;;5040994;28;25071;-75
2023/03/03 00:19:53;;;;;;;24.08;11.85;;;3.70;99.90;;;;;;5048227;28;25077;-74
2023/03/03 00:22:39;;;;;;;26.52;12.70;;;3.70;99.90;;;;;;5046983;28;25094;-75
2023/03/03 00:25:27;;;;;;;26.65;11.35;;;3.70;99.90;;;;;;5048202;28;25067;-73
2023/03/03 00:27:53;;;;;;;26.75;11.65;;;3.70;99.90;;;;;;5047615;28;25082;-73
2023/03/03 00:30:28;;;;;;;21.75;10.20;;;3.60;99.90;;;;;;5027271;28;25057;-75
2023/03/03 00:32:55;;;;;;;22.95;10.50;;;3.50;99.90;;;;;;5033909;28;25074;-76
2023/03/03 00:35:37;;;;;;;18.02;9.98;;;3.50;99.90;;;;;;5038458;28;25075;-75
2023/03/03 00:38:17;;;;;;;24.42;10.57;;;3.50;99.90;;;;;;5048923;28;25142;-75
2023/03/03 00:40:43;;;;;;;21.05;9.57;;;3.40;99.90;;;;;;5049185;28;25059;-73
2023/03/03 00:43:18;;;;;;;19.15;9.52;;;3.40;99.90;;;;;;5043285;28;25062;-74
2023/03/03 00:45:54;;;;;;;27.40;10.13;;;3.30;99.90;;;;;;5031319;28;25098;-76
2023/03/03 00:48:29;;;;;;;16.30;9.68;;;3.20;99.90;;;;;;5042250;28;25053;-72
2023/03/03 00:50:57;;;;;;;22.25;10.30;;;3.20;99.90;;;;;;5036571;28;25089;-72
2023/03/03 00:53:25;;;;;;;17.55;9.60;;;3.20;99.90;;;;;;5035676;28;25086;-74
2023/03/03 00:55:52;;;;;;;23.55;11.32;;;3.20;99.90;;;;;;5027284;28;25062;-75
2023/03/03 00:58:20;;;;;;;19.60;9.70;;;3.10;99.90;;;;;;5040743;28;25098;-76
2023/03/03 01:00:48;;;;;;;17.52;9.45;;;3.10;99.90;;;;;;5046503;28;25066;-76
2023/03/03 01:03:20;;;;;;;19.77;9.40;;;3.20;99.90;;;;;;5044702;28;25080;-73
2023/03/03 01:05:46;;;;;;;;;;;3.20;99.90;;;;;;5044893;28;25051;-74
2023/03/03 01:08:12;;;;;;;20.58;10.07;;;3.20;99.90;;;;;;5049890;28;24109;-74
2023/03/03 01:10:51;;;;;;;22.25;9.95;;;3.20;99.90;;;;;;5049564;28;25048;-74
2023/03/03 01:13:21;;;;;;;20.65;10.40;;;3.20;99.90;;;;;;5049615;28;25082;-75
2023/03/03 01:15:47;;;;;;;24.52;10.20;;;3.10;99.90;;;;;;5050981;28;25068;-73
2023/03/03 01:18:13;;;;;;;19.38;9.77;;;3.20;99.90;;;;;;5051949;28;25100;-73
2023/03/03 01:20:39;;;;;;;18.88;10.52;;;3.20;99.90;;;;;;5050633;28;25081;-75
2023/03/03 01:23:05;;;;;;;24.73;10.30;;;3.20;99.90;;;;;;5047456;28;25174;-75
2023/03/03 01:25:31;;;;;;;18.80;10.10;;;3.10;99.90;;;;;;5046118;28;25076;-74
2023/03/03 01:27:57;;;;;;;21.40;10.00;;;3.20;99.90;;;;;;5046141;28;25108;-73
2023/03/03 01:30:24;;;;;;;22.30;10.90;;;3.20;99.90;;;;;;5046797;28;25079;-73
2023/03/03 01:32:50;;;;;;;23.38;10.90;;;3.20;99.90;;;;;;5043330;28;25079;-72
2023/03/03 01:35:17;;;;;;;27.95;11.27;;;3.20;99.90;;;;;;5038306;28;25084;-73
2023/03/03 01:37:43;;;;;;;23.88;11.75;;;3.20;99.90;;;;;;5033625;28;25066;-73
2023/03/03 01:40:19;;;;;;;24.02;11.50;;;3.20;99.90;;;;;;5032936;28;25080;-73
2023/03/03 01:42:44;;;;;;;24.98;10.25;;;3.20;99.90;;;;;;5022170;28;25115;-74
2023/03/03 01:45:16;;;;;;;25.75;12.85;;;3.30;99.90;;;;;;5032094;28;25080;-73
2023/03/03 01:47:47;;;;;;;23.47;12.00;;;3.40;99.90;;;;;;5031895;28;25075;-74
2023/03/03 01:50:31;;;;;;;29.10;11.68;;;3.30;99.90;;;;;;5032025;28;25081;-73
2023/03/03 01:53:00;;;;;;;34.33;11.73;;;3.40;99.90;;;;;;5031296;28;25072;-72
2023/03/03 01:55:32;;;;;;;28.08;12.02;;;3.40;99.90;;;;;;5032633;28;25155;-73
2023/03/03 01:58:00;;;;;;;;;;;3.40;99.90;;;;;;5031437;28;25125;-73
2023/03/03 02:00:27;;;;;;;24.95;12.35;;;3.50;99.90;;;;;;5033713;28;24168;-74
2023/03/03 02:02:54;;;;;;;32.33;13.10;;;3.50;99.90;;;;;;5034255;28;25122;-73
2023/03/03 02:05:21;;;;;;;24.20;11.63;;;3.50;99.90;;;;;;5032559;28;25097;-75
2023/03/03 02:07:47;;;;;;;31.83;14.07;;;3.50;99.90;;;;;;5041769;28;25064;-73
2023/03/03 02:10:16;;;;;;;31.83;12.48;;;3.50;99.90;;;;;;5034248;28;25078;-73
2023/03/03 02:12:49;;;;;;;28.90;12.32;;;3.60;99.90;;;;;;5033884;28;25056;-73
2023/03/03 02:15:16;;;;;;;;;;;3.50;99.90;;;;;;5030061;28;25159;-74
2023/03/03 02:17:42;;;;;;;30.73;10.75;;;3.60;99.90;;;;;;5021205;28;25129;-73
2023/03/03 02:20:19;;;;;;;28.48;11.25;;;3.60;99.90;;;;;;5021910;28;25077;-74
2023/03/03 02:23:37;;;;;;;32.50;11.88;;;3.60;99.90;;;;;;5034308;28;25077;-74
2023/03/03 02:26:33;;;;;;;29.48;11.88;;;3.70;99.90;;;;;;5032921;28;25069;-71
2023/03/03 02:28:59;;;;;;;29.30;11.18;;;3.70;99.90;;;;;;5020423;28;25129;-74
2023/03/03 02:31:26;;;;;;;31.13;12.32;;;3.80;99.90;;;;;;5032991;28;25067;-73
2023/03/03 02:33:53;;;;;;;36.08;12.45;;;3.90;99.90;;;;;;5032637;28;25062;-74
2023/03/03 02:36:25;;;;;;;39.78;13.07;;;3.80;99.90;;;;;;5034837;28;25062;-73
2023/03/03 02:39:19;;;;;;;28.52;10.88;;;3.80;99.90;;;;;;5033895;28;25080;-73
2023/03/03 02:41:56;;;;;;;34.80;12.82;;;3.70;99.90;;;;;;5033060;28;25048;-72
2023/03/03 02:44:25;;;;;;;24.55;12.35;;;3.70;99.90;;;;;;5035018;28;25164;-73
2023/03/03 02:46:53;;;;;;;29.23;12.05;;;3.60;99.90;;;;;;5034679;28;25069;-72
2023/03/03 02:49:22;;;;;;;27.90;11.75;;;3.60;99.90;;;;;;5029064;28;25114;-74
2023/03/03 02:51:48;;;;;;;27.52;11.27;;;3.60;99.90;;;;;;5032081;28;25069;-73
2023/03/03 02:54:16;;;;;;;26.50;13.10;;;3.50;99.90;;;;;;5039234;28;25066;-75
2023/03/03 02:56:42;;;;;;;32.10;12.82;;;3.50;99.90;;;;;;5036494;28;25046;-74
2023/03/03 02:59:08;;;;;;;27.15;12.18;;;3.40;99.90;;;;;;5031210;28;25156;-75
2023/03/03 03:01:36;;;;;;;26.25;11.90;;;3.30;99.90;;;;;;5020006;28;25055;-73
2023/03/03 03:04:11;;;;;;;31.42;13.88;;;3.30;99.90;;;;;;5031899;28;25049;-76
2023/03/03 03:06:37;;;;;;;27.30;12.80;;;3.20;99.90;;;;;;5018841;28;25063;-73
2023/03/03 03:09:04;;;;;;;30.42;12.90;;;3.10;99.90;;;;;;5033991;28;25161;-74
2023/03/03 03:11:30;;;;;;;35.10;13.77;;;3.00;99.90;;;;;;5031419;28;25077;-72
2023/03/03 03:13:56;;;;;;;29.25;12.10;;;3.10;99.90;;;;;;5033782;28;25071;-73
2023/03/03 03:16:22;;;;;;;36.45;14.02;;;3.00;99.90;;;;;;5021485;28;25089;-73
2023/03/03 03:18:49;;;;;;;30.40;14.05;;;3.00;99.90;;;;;;5032721;28;25069;-73
2023/03/03 03:21:15;;;;;;;29.67;13.88;;;2.90;99.90;;;;;;5030421;28;25050;-75
2023/03/03 03:23:41;;;;;;;28.85;12.65;;;2.90;99.90;;;;;;5031595;28;25123;-71
2023/03/03 03:26:07;;;;;;;34.22;14.40;;;2.80;99.90;;;;;;5017453;28;25074;-71
2023/03/03 03:28:33;;;;;;;28.75;12.90;;;2.80;99.90;;;;;;5032281;28;25069;-71
2023/03/03 03:30:59;;;;;;;32.28;13.93;;;2.70;99.90;;;;;;5031002;28;25087;-73
2023/03/03 03:33:26;;;;;;;31.92;14.10;;;2.70;99.90;;;;;;5030615;28;25066;-74
2023/03/03 03:35:54;;;;;;;34.88;14.05;;;2.70;99.90;;;;;;5019416;28;25063;-73
2023/03/03 03:38:20;;;;;;;26.33;12.88;;;2.60;99.90;;;;;;5038693;28;25086;-75
2023/03/03 03:40:46;;;;;;;28.65;13.23;;;2.60;99.90;;;;;;5031577;28;25065;-75
2023/03/03 03:43:11;;;;;;;35.58;14.75;;;2.50;99.90;;;;;;5032144;28;25045;-72
2023/03/03 03:45:37;;;;;;;29.95;13.48;;;2.50;99.90;;;;;;5032543;28;25108;-73
2023/03/03 03:48:03;;;;;;;35.30;14.02;;;2.50;99.90;;;;;;5032264;28;25122;-73
2023/03/03 03:50:28;;;;;;;30.00;13.40;;;2.60;99.90;;;;;;5030930;28;25095;-72
2023/03/03 03:52:54;;;;;;;34.88;14.75;;;2.50;99.90;;;;;;5032644;28;25062;-74
2023/03/03 03:55:21;;;;;;;32.58;14.48;;;2.50;99.90;;;;;;5031073;28;25053;-71
2023/03/03 03:57:47;;;;;;;36.38;14.43;;;2.40;99.90;;;;;;5032675;28;25072;-73
2023/03/03 04:00:13;;;;;;;37.67;15.07;;;2.30;99.90;;;;;;5030030;28;25067;-74
2023/03/03 04:02:38;;;;;;;46.53;14.93;;;2.40;99.90;;;;;;5030971;28;25059;-73
2023/03/03 04:05:05;;;;;;;40.50;15.30;;;2.30;99.90;;;;;;5029985;28;25172;-73
2023/03/03 04:07:31;;;;;;;41.08;15.98;;;2.20;99.90;;;;;;5030988;28;25131;-73
2023/03/03 04:09:57;;;;;;;43.78;17.25;;;2.30;99.90;;;;;;5031812;28;25083;-77
2023/03/03 04:12:23;;;;;;;46.55;17.95;;;2.30;99.90;;;;;;5030802;28;25091;-73
2023/03/03 04:14:48;;;;;;;52.40;19.38;;;2.40;99.90;;;;;;5029414;28;25085;-74
2023/03/03 04:17:23;;;;;;;57.42;18.17;;;2.40;99.90;;;;;;5030602;28;25120;-76
2023/03/03 04:19:52;;;;;;;57.90;19.73;;;2.50;99.90;;;;;;5029951;28;25063;-73
2023/03/03 04:22:18;;;;;;;49.70;18.40;;;2.50;99.90;;;;;;5030361;28;25112;-72
2023/03/03 04:24:43;;;;;;;52.80;18.25;;;2.50;99.90;;;;;;5028212;28;25073;-72
2023/03/03 04:27:09;;;;;;;55.30;19.73;;;2.50;99.90;;;;;;5038556;28;25138;-73
2023/03/03 04:29:35;;;;;;;50.05;18.40;;;2.60;99.90;;;;;;5034353;28;25156;-71
2023/03/03 04:32:00;;;;;;;44.40;17.73;;;2.70;99.90;;;;;;5030714;28;25061;-77
2023/03/03 04:34:26;;;;;;;50.35;17.35;;;2.70;99.90;;;;;;5030337;28;25122;-72
2023/03/03 04:36:52;;;;;;;58.75;19.45;;;2.80;99.90;;;;;;5032522;28;25067;-74
2023/03/03 04:39:18;;;;;;;53.70;18.65;;;2.70;99.90;;;;;;5033558;28;25053;-74
2023/03/03 04:41:44;;;;;;;54.97;17.45;;;2.80;99.90;;;;;;5033146;28;25129;-73
2023/03/03 04:44:10;;;;;;;52.75;19.13;;;2.80;99.90;;;;;;5030861;28;25114;-73
2023/03/03 04:46:35;;;;;;;71.20;18.17;;;2.80;99.90;;;;;;5031894;28;25061;-74
2023/03/03 04:49:02;;;;;;;61.58;19.35;;;2.90;99.90;;;;;;5032374;28;25096;-74
2023/03/03 04:51:28;;;;;;;53.30;18.42;;;3.10;99.90;;;;;;5036100;28;25074;-74
2023/03/03 04:53:53;;;;;;;60.28;19.27;;;3.00;99.90;;;;;;5049865;28;25061;-74
2023/03/03 04:56:19;;;;;;;55.88;18.90;;;3.20;99.90;;;;;;5048826;28;25082;-75
2023/03/03 04:58:44;;;;;;;45.25;16.80;;;3.30;99.90;;;;;;5032651;28;25134;-75
2023/03/03 05:01:13;;;;;;;55.53;18.65;;;3.30;99.90;;;;;;5048222;28;25059;-73
2023/03/03 05:03:39;;;;;;;52.95;18.10;;;3.50;99.90;;;;;;5036768;28;25066;-74
2023/03/03 05:06:06;;;;;;;55.45;18.00;;;3.50;99.90;;;;;;5048877;28;25051;-71
2023/03/03 05:08:31;;;;;;;67.82;19.88;;;3.50;99.90;;;;;;5044668;28;25077;-72
2023/03/03 05:11:00;;;;;;;52.95;16.38;;;3.70;99.90;;;;;;5042710;28;25103;-73
2023/03/03 05:13:28;;;;;;;58.67;17.70;;;3.80;99.90;;;;;;5041156;28;25080;-75
2023/03/03 05:15:55;;;;;;;54.72;17.95;;;3.70;99.90;;;;;;5039765;28;25055;-75
2023/03/03 05:18:23;;;;;;;60.53;17.40;;;3.80;99.90;;;;;;5030959;28;25076;-75
2023/03/03 05:20:51;;;;;;;50.50;16.17;;;3.80;99.90;;;;;;5029545;28;25073;-74
2023/03/03 05:23:17;;;;;;;50.30;15.18;;;3.80;99.90;;;;;;5028926;28;25074;-75
2023/03/03 05:25:43;;;;;;;58.40;19.60;;;4.00;99.90;;;;;;5032466;28;25070;-77
2023/03/03 05:28:10;;;;;;;59.72;18.50;;;4.00;99.90;;;;;;5031129;28;25109;-76
2023/03/03 05:30:36;;;;;;;56.35;17.65;;;4.10;99.90;;;;;;5027018;28;25073;-74
2023/03/03 05:33:02;;;;;;;66.30;18.63;;;4.10;99.90;;;;;;5030700;28;25091;-75
2023/03/03 05:35:28;;;;;;;64.70;17.92;;;4.20;99.90;;;;;;5018404;28;25130;-74
2023/03/03 05:37:57;;;;;;;70.80;19.60;;;4.20;99.90;;;;;;5027909;28;25085;-75
2023/03/03 05:40:26;;;;;;;76.32;19.73;;;4.20;99.90;;;;;;5028641;28;25090;-74
2023/03/03 05:42:52;;;;;;;75.65;21.05;;;4.30;99.90;;;;;;5018029;28;25059;-75
2023/03/03 05:45:23;;;;;;;94.53;23.42;;;4.40;99.90;;;;;;5030520;28;25064;-73
2023/03/03 05:47:52;;;;;;;80.13;20.15;;;4.30;99.90;;;;;;5018237;28;25119;-75
2023/03/03 05:50:20;;;;;;;79.93;24.33;;;4.40;99.90;;;;;;5029539;28;25084;-75
2023/03/03 05:52:50;;;;;;;112.30;22.98;;;4.50;99.90;;;;;;5027188;28;25068;-74
2023/03/03 05:55:17;;;;;;;116.95;24.88;;;4.60;99.90;;;;;;5031616;28;25107;-73
2023/03/03 05:57:42;;;;;;;113.15;24.40;;;4.80;99.90;;;;;;5035966;28;25136;-74
2023/03/03 06:00:08;;;;;;;101.03;23.92;;;4.80;99.90;;;;;;5033669;28;25068;-73
2023/03/03 06:02:34;;;;;;;96.13;25.70;;;5.00;99.90;;;;;;5035497;28;25101;-74
2023/03/03 06:05:00;;;;;;;89.15;24.40;;;5.20;99.90;;;;;;5021774;28;25083;-75
2023/03/03 06:07:25;;;;;;;117.00;27.00;;;5.30;99.90;;;;;;5035197;28;25064;-76
2023/03/03 06:09:51;;;;;;;112.15;27.58;;;5.40;99.90;;;;;;5050098;28;25071;-76
2023/03/03 06:12:17;;;;;;;118.65;27.50;;;5.40;99.90;;;;;;5050020;28;25137;-74
2023/03/03 06:14:42;;;;;;;99.05;24.90;;;5.60;99.90;;;;;;5039271;28;25098;-74
2023/03/03 06:17:09;;;;;;;111.28;26.33;;;5.80;99.90;;;;;;5035593;28;25135;-75
2023/03/03 06:19:35;;;;;;;107.30;26.33;;;5.90;99.90;;;;;;5037084;28;25070;-76
2023/03/03 06:22:01;;;;;;;140.77;28.02;;;6.30;99.90;;;;;;5028790;28;25062;-78
2023/03/03 06:24:29;;;;;;;112.20;25.85;;;6.40;99.90;;;;;;5050094;28;25088;-77
2023/03/03 06:26:55;;;;;;;118.53;28.30;;;6.50;99.90;;;;;;5040642;28;25099;-77
2023/03/03 06:29:21;;;;;;;117.93;28.33;;;6.50;99.90;;;;;;5051557;28;25047;-77
2023/03/03 06:31:47;;;;;;;95.22;24.13;;;6.80;99.90;;;;;;5042507;28;25074;-78
2023/03/03 06:34:12;;;;;;;138.13;25.58;;;6.90;99.90;;;;;;5037748;28;25089;-77
2023/03/03 06:36:38;;;;;;;94.78;21.90;;;6.90;99.90;;;;;;5035451;28;25054;-77
2023/03/03 06:39:04;;;;;;;101.20;23.30;;;7.10;99.90;;;;;;5028802;28;25073;-76
2023/03/03 06:41:29;;;;;;;98.88;23.83;;;7.30;99.90;;;;;;5038338;28;25061;-77
2023/03/03 06:43:57;;;;;;;72.00;21.02;;;7.40;99.90;;;;;;5038334;28;25114;-74
2023/03/03 06:46:23;;;;;;;95.60;24.30;;;7.40;99.90;;;;;;5037186;28;25090;-77
2023/03/03 06:48:48;;;;;;;101.78;23.75;;;7.70;99.90;;;;;;5039991;28;25057;-75
2023/03/03 06:51:30;;;;;;;91.50;22.55;;;7.80;99.90;;;;;;5024993;28;25064;-76
2023/03/03 06:53:58;;;;;;;123.93;27.80;;;7.60;99.90;;;;;;5037671;28;25098;-78
2023/03/03 06:56:26;;;;;;;103.00;24.27;;;7.90;99.90;;;;;;5031715;28;25072;-75
2023/03/03 06:59:01;;;;;;;149.82;29.58;;;7.80;99.90;;;;;;5037730;28;25069;-76
2023/03/03 07:01:33;;;;;;;115.10;26.10;;;8.00;99.90;;;;;;5039299;28;25071;-76
2023/03/03 07:03:59;;;;;;;104.95;25.08;;;8.00;99.90;;;;;;5039960;28;25146;-77
2023/03/03 07:06:27;;;;;;;120.40;26.15;;;8.10;99.90;;;;;;5028333;28;25056;-75
2023/03/03 07:08:53;;;;;;;95.72;24.95;;;8.30;99.90;;;;;;5036941;28;25141;-75
2023/03/03 07:11:23;;;;;;;89.28;23.45;;;8.10;99.90;;;;;;5036959;28;25094;-77
2023/03/03 07:13:53;;;;;;;99.28;25.42;;;8.20;99.90;;;;;;5037883;28;25069;-78
2023/03/03 07:16:25;;;;;;;91.55;22.27;;;8.30;99.90;;;;;;5038634;28;25065;-77
2023/03/03 07:18:53;;;;;;;102.32;22.95;;;8.40;99.90;;;;;;5022961;28;25066;-76
2023/03/03 07:21:35;;;;;;;100.85;23.20;;;8.40;99.90;;;;;;5037649;28;25104;-76
2023/03/03 07:24:21;;;;;;;102.03;25.10;;;8.50;99.90;;;;;;5029469;28;25056;-77
2023/03/03 07:26:46;;;;;;;80.95;21.45;;;8.60;99.90;;;;;;5037025;28;25130;-74
2023/03/03 07:29:18;;;;;;;74.90;21.48;;;8.40;99.90;;;;;;5030444;28;25055;-77
2023/03/03 07:31:48;;;;;;;83.20;19.02;;;8.50;99.90;;;;;;5044212;28;25111;-77
2023/03/03 07:34:34;;;;;;;74.55;19.77;;;8.50;99.90;;;;;;5044625;28;25082;-78
2023/03/03 07:37:15;;;;;;;77.43;20.05;;;8.60;99.90;;;;;;5028842;28;25118;-76
2023/03/03 07:39:45;;;;;;;75.82;21.10;;;8.60;99.90;;;;;;5036470;28;25155;-77
2023/03/03 07:42:28;;;;;;;80.68;20.15;;;8.70;99.90;;;;;;5033368;28;25081;-76
2023/03/03 07:44:57;;;;;;;67.88;18.90;;;8.70;99.90;;;;;;5025799;28;25097;-76
2023/03/03 07:47:28;;;;;;;88.55;21.60;;;8.80;99.90;;;;;;5029282;28;25080;-77
2023/03/03 07:49:58;;;;;;;75.68;20.88;;;8.80;99.90;;;;;;5027641;28;25081;-77
2023/03/03 07:52:40;;;;;;;71.13;19.77;;;8.60;99.90;;;;;;5025655;28;25059;-75
2023/03/03 07:55:24;;;;;;;64.57;17.33;;;8.70;99.90;;;;;;5027082;28;25067;-75
2023/03/03 07:57:52;;;;;;;56.92;15.85;;;8.90;99.90;;;;;;5027932;28;25070;-77
2023/03/03 08:00:27;;;;;;;55.65;17.02;;;8.70;99.90;;;;;;5027547;28;25108;-77
2023/03/03 08:02:59;;;;;;;52.53;16.88;;;8.60;99.90;;;;;;5026717;28;25060;-75
2023/03/03 08:05:35;;;;;;;57.38;17.75;;;8.60;99.90;;;;;;5026406;28;25164;-76
2023/03/03 08:08:29;;;;;;;49.95;15.20;;;8.80;99.90;;;;;;5026553;28;25074;-77
2023/03/03 08:11:00;;;;;;;62.40;16.58;;;8.60;99.90;;;;;;5026359;28;25059;-76
2023/03/03 08:13:37;;;;;;;54.75;16.30;;;8.70;99.90;;;;;;5024520;28;25158;-75
2023/03/03 08:16:08;;;;;;;39.80;14.18;;;8.60;99.90;;;;;;5016438;28;25079;-75
2023/03/03 08:18:41;;;;;;;50.95;15.25;;;8.60;99.90;;;;;;5026867;28;25057;-77
2023/03/03 08:21:20;;;;;;;49.50;15.68;;;8.50;99.90;;;;;;5030246;28;25069;-77
2023/03/03 08:23:50;;;;;;;50.80;14.75;;;8.70;99.90;;;;;;5050914;28;25093;-75
2023/03/03 08:26:16;;;;;;;45.45;13.75;;;8.50;99.90;;;;;;5050830;28;25082;-76
2023/03/03 08:28:42;;;;;;;54.55;16.50;;;8.60;99.90;;;;;;5044713;28;25093;-75
2023/03/03 08:31:08;;;;;;;40.88;13.80;;;8.50;99.90;;;;;;5048818;28;25071;-78
2023/03/03 08:33:33;;;;;;;32.97;12.50;;;8.50;99.90;;;;;;5037653;28;25091;-76
2023/03/03 08:35:59;;;;;;;42.95;13.80;;;8.30;99.90;;;;;;5046747;28;25149;-74
2023/03/03 08:38:25;;;;;;;46.13;15.10;;;8.40;99.90;;;;;;5047464;28;25058;-78
2023/03/03 08:40:51;;;;;;;41.25;13.88;;;8.20;99.90;;;;;;5046590;28;25076;-75
2023/03/03 08:43:20;;;;;;;44.45;14.45;;;8.20;99.90;;;;;;5047371;28;25106;-77
2023/03/03 08:45:48;;;;;;;45.97;14.73;;;8.20;99.90;;;;;;5051576;28;25062;-76
2023/03/03 08:48:15;;;;;;;42.13;14.10;;;8.40;99.90;;;;;;5046365;28;25097;-76
2023/03/03 08:50:41;;;;;;;43.55;15.13;;;8.30;99.90;;;;;;5045092;28;25120;-75
2023/03/03 08:53:08;;;;;;;40.75;15.07;;;8.20;99.90;;;;;;5031211;28;25119;-77
2023/03/03 08:55:34;;;;;;;44.92;14.80;;;8.10;99.90;;;;;;5016290;28;25046;-76
2023/03/03 08:57:59;;;;;;;35.80;12.98;;;8.20;99.90;;;;;;5017496;28;25141;-75
2023/03/03 09:00:25;;;;;;;35.70;13.60;;;8.10;99.90;;;;;;5030545;28;25062;-74
2023/03/03 09:02:51;;;;;;;34.70;12.50;;;8.20;99.90;;;;;;5029514;28;25140;-73
2023/03/03 09:05:18;;;;;;;38.95;13.30;;;8.20;99.90;;;;;;5029725;28;25067;-72
2023/03/03 09:07:45;;;;;;;35.00;13.95;;;8.00;99.90;;;;;;5040458;28;25077;-75
2023/03/03 09:10:13;;;;;;;36.63;12.05;;;8.00;99.90;;;;;;5034681;28;25108;-76
2023/03/03 09:12:42;;;;;;;32.08;12.40;;;8.10;99.90;;;;;;5045119;28;25166;-73
2023/03/03 09:15:19;;;;;;;26.15;10.40;;;8.10;99.90;;;;;;5041523;28;25052;-77
2023/03/03 09:17:45;;;;;;;34.75;11.18;;;8.20;99.90;;;;;;5026857;28;25142;-77
2023/03/03 09:20:34;;;;;;;28.40;10.40;;;8.20;99.90;;;;;;5027438;28;25063;-77
2023/03/03 09:23:22;;;;;;;30.88;10.13;;;8.10;99.90;;;;;;5019517;28;25087;-75
2023/03/03 09:25:49;;;;;;;22.05;9.48;;;7.80;99.90;;;;;;5023662;28;25070;-76
2023/03/03 09:28:23;;;;;;;22.77;9.02;;;7.80;99.90;;;;;;5032820;28;25057;-75
2023/03/03 09:30:51;;;;;;;24.83;9.57;;;7.90;99.90;;;;;;5024112;28;25069;-77
2023/03/03 09:33:23;;;;;;;21.38;8.75;;;7.80;99.90;;;;;;5029558;28;25046;-77
2023/03/03 09:35:52;;;;;;;23.52;8.20;;;7.60;99.90;;;;;;5024943;28;25094;-76
2023/03/03 09:38:30;;;;;;;24.92;8.10;;;7.60;99.90;;;;;;5024566;28;25079;-76
2023/03/03 09:41:32;;;;;;;17.67;8.00;;;7.60;99.90;;;;;;5014452;28;25120;-75
2023/03/03 09:44:29;;;;;;;20.70;8.18;;;7.60;99.90;;;;;;5032068;28;25063;-74
2023/03/03 09:47:03;;;;;;;19.23;7.80;;;7.40;99.90;;;;;;5032845;28;25097;-75
2023/03/03 09:49:55;;;;;;;14.98;6.55;;;7.30;99.90;;;;;;5025962;28;25132;-77
2023/03/03 09:52:43;;;;;;;19.80;7.45;;;7.20;99.90;;;;;;5025439;28;25097;-76
2023/03/03 09:55:29;;;;;;;20.10;8.07;;;7.00;99.90;;;;;;5026180;28;25058;-78
2023/03/03 09:58:17;;;;;;;16.58;7.00;;;7.10;99.90;;;;;;5025309;28;25094;-77
2023/03/03 10:00:54;;;;;;;14.93;7.10;;;7.00;99.90;;;;;;5014905;28;25112;-77
2023/03/03 10:03:31;;;;;;;16.48;6.47;;;6.80;99.90;;;;;;5025765;28;25044;-76
2023/03/03 10:06:31;;;;;;;17.35;6.82;;;6.80;99.90;;;;;;5014397;28;25069;-78
2023/03/03 10:09:15;;;;;;;15.98;6.90;;;6.70;99.90;;;;;;5024902;28;25140;-78
2023/03/03 10:11:55;;;;;;;12.90;5.97;;;6.70;99.90;;;;;;5022509;28;25051;-77
2023/03/03 10:14:42;;;;;;;9.77;4.88;;;6.60;99.90;;;;;;5025580;28;25098;-77
2023/03/03 10:17:35;;;;;;;13.95;5.90;;;6.40;99.90;;;;;;5012631;28;25064;-76
2023/03/03 10:20:27;;;;;;;16.58;5.63;;;6.20;99.90;;;;;;5025565;28;25061;-77
2023/03/03 10:23:01;;;;;;;12.93;5.65;;;6.00;99.90;;;;;;5025739;28;25064;-75
2023/03/03 10:25:42;;;;;;;8.23;4.70;;;5.90;99.90;;;;;;5022960;28;25064;-78
2023/03/03 10:28:32;;;;;;;18.77;6.43;;;6.00;99.90;;;;;;5024052;28;25065;-76
2023/03/03 10:31:08;;;;;;;10.02;5.05;;;5.90;99.90;;;;;;5023955;28;25082;-77
2023/03/03 10:33:52;;;;;;;17.00;5.18;;;5.70;99.90;;;;;;5026317;28;25174;-77
2023/03/03 10:36:28;;;;;;;11.38;5.32;;;5.70;99.90;;;;;;5025445;28;25065;-75
2023/03/03 10:39:18;;;;;;;13.55;5.30;;;5.70;99.90;;;;;;5038667;28;25087;-77
2023/03/03 10:41:46;;;;;;;10.90;5.07;;;5.60;99.90;;;;;;5042166;28;25088;-73
2023/03/03 10:44:33;;;;;;;11.90;5.30;;;5.60;99.90;;;;;;5045242;28;25058;-75
2023/03/03 10:47:03;;;;;;;14.95;6.93;;;5.70;99.90;;;;;;5042528;28;25084;-75
2023/03/03 10:49:47;;;;;;;13.48;5.13;;;5.80;99.90;;;;;;5042283;28;25088;-76
2023/03/03 10:52:18;;;;;;;9.93;4.63;;;5.90;99.90;;;;;;5034853;28;25062;-74
2023/03/03 10:55:10;;;;;;;10.77;4.47;;;6.00;99.90;;;;;;5039828;28;25068;-73
2023/03/03 10:57:42;;;;;;;8.55;4.45;;;6.00;99.90;;;;;;5030681;28;25097;-74
2023/03/03 11:00:26;;;;;;;;;;;6.20;99.90;;;;;;5031493;28;25056;-73
2023/03/03 11:03:21;;;;;;;9.65;4.28;;;6.30;99.90;;;;;;5037007;28;24075;-76
2023/03/03 11:05:51;;;;;;;5.72;3.67;;;6.10;99.90;;;;;;5021658;28;25100;-74
2023/03/03 11:08:27;;;;;;;13.13;4.60;;;6.00;99.90;;;;;;5035365;28;25073;-75
2023/03/03 11:11:20;;;;;;;8.10;4.13;;;5.70;99.90;;;;;;5033244;28;25065;-76
2023/03/03 11:14:04;;;;;;;;;;;5.80;99.90;;;;;;5034635;28;25065;-76
2023/03/03 11:16:53;;;;;;;10.30;5.03;;;5.80;99.90;;;;;;5030444;28;25076;-74
2023/03/03 11:19:34;;;;;;;11.27;4.20;;;5.70;99.90;;;;;;5033391;28;25061;-76
2023/03/03 11:22:09;;;;;;;10.93;4.57;;;5.80;99.90;;;;;;5033512;28;25080;-75
2023/03/03 11:25:00;;;;;;;11.05;4.80;;;6.40;99.90;;;;;;5031894;28;25718;-73
2023/03/03 11:27:49;;;;;;;7.88;4.28;;;6.90;99.90;;;;;;5035205;28;25070;-75
2023/03/03 11:30:21;;;;;;;6.97;4.15;;;7.60;99.90;;;;;;5037776;28;25051;-78
2023/03/03 11:33:07;;;;;;;8.00;3.83;;;7.50;99.90;;;;;;5042761;28;25060;-76
2023/03/03 11:35:57;;;;;;;10.00;4.22;;;7.40;99.90;;;;;;5030633;28;25068;-75
2023/03/03 11:38:47;;;;;;;11.73;4.03;;;7.60;99.90;;;;;;5018360;28;25067;-76
2023/03/03 11:41:38;;;;;;;7.47;3.97;;;7.40;99.90;;;;;;5030906;28;25108;-76
2023/03/03 11:44:29;;;;;;;7.30;3.53;;;7.60;99.90;;;;;;5032638;28;25044;-76
2023/03/03 11:47:17;;;;;;;10.27;3.50;;;8.10;99.90;;;;;;5036354;28;25057;-76
2023/03/03 11:49:50;;;;;;;8.52;3.60;;;8.30;99.90;;;;;;5034626;28;25061;-80
2023/03/03 11:52:16;;;;;;;14.93;5.65;;;8.50;99.90;;;;;;5040324;28;25098;-75
2023/03/03 11:55:04;;;;;;;5.55;3.08;;;8.30;99.90;;;;;;5046171;28;25047;-75
2023/03/03 11:57:53;;;;;;;8.63;3.55;;;7.70;99.90;;;;;;5036140;28;25057;-75
2023/03/03 12:00:21;;;;;;;7.80;3.78;;;7.60;99.90;;;;;;5019689;28;25096;-76
2023/03/03 12:03:00;;;;;;;7.97;4.07;;;7.90;99.90;;;;;;5031903;28;25052;-75
2023/03/03 12:05:44;;;;;;;9.43;3.75;;;7.90;99.90;;;;;;5038359;28;25139;-77
2023/03/03 12:08:28;;;;;;;5.97;3.55;;;7.50;99.90;;;;;;5045163;28;25057;-75
2023/03/03 12:11:24;;;;;;;7.75;3.72;;;7.50;99.90;;;;;;5039691;28;25057;-75
2023/03/03 12:13:58;;;;;;;7.80;3.50;;;7.20;99.90;;;;;;5030098;28;25053;-78
2023/03/03 12:16:50;;;;;;;8.77;3.50;;;7.20;99.90;;;;;;5030407;28;25060;-75
2023/03/03 12:19:30;;;;;;;6.20;3.35;;;7.20;99.90;;;;;;5030146;28;25071;-76
2023/03/03 12:22:25;;;;;;;9.43;3.33;;;7.10;99.90;;;;;;5029031;28;25054;-75
2023/03/03 12:25:12;;;;;;;8.50;3.17;;;7.40;99.90;;;;;;5043487;28;25074;-76
2023/03/03 12:27:54;;;;;;;7.85;3.45;;;8.20;99.90;;;;;;5044035;28;25076;-75
2023/03/03 12:30:48;;;;;;;4.10;2.58;;;8.20;99.90;;;;;;5029119;28;25063;-77
2023/03/03 12:34:07;;;;;;;3.90;1.75;;;8.00;99.90;;;;;;5020205;28;25090;-76
2023/03/03 12:36:53;;;;;;;3.88;1.88;;;7.40;99.90;;;;;;5005356;28;25053;-77
2023/03/03 12:39:59;;;;;;;4.85;2.30;;;7.30;99.90;;;;;;5027675;28;25083;-76
2023/03/03 12:42:33;;;;;;;4.47;1.92;;;7.20;99.90;;;;;;5026563;28;25078;-76
2023/03/03 12:45:41;;;;;;;5.85;1.95;;;7.10;99.90;;;;;;5025388;28;25053;-75
2023/03/03 12:48:15;;;;;;;4.93;1.67;;;7.10;99.90;;;;;;5026681;28;25166;-74
2023/03/03 12:51:03;;;;;;;3.60;1.50;;;7.30;99.90;;;;;;5024420;28;25114;-77
2023/03/03 12:53:41;;;;;;;2.55;1.20;;;8.00;99.90;;;;;;5024756;28;25044;-76
2023/03/03 12:56:09;;;;;;;6.25;1.50;;;8.50;99.90;;;;;;5026095;28;25073;-76
2023/03/03 12:59:00;;;;;;;4.47;0.98;;;8.80;99.90;;;;;;5024738;28;25083;-75
2023/03/03 13:01:29;;;;;;;3.00;1.20;;;9.20;99.90;;;;;;5026087;28;25082;-77
2023/03/03 13:04:16;;;;;;;2.20;1.15;;;9.10;99.90;;;;;;5024250;28;25057;-75
2023/03/03 13:06:58;;;;;;;3.33;1.50;;;9.00;99.90;;;;;;5025270;28;25094;-75
2023/03/03 13:09:52;;;;;;;1.30;1.10;;;9.20;99.90;;;;;;5026122;28;25084;-77
2023/03/03 13:12:36;;;;;;;7.60;1.08;;;9.50;99.90;;;;;;5026512;28;25049;-76